Saint Médard d'Aunis (17)                     Septembre 2021                                
  Température (°C) - Abri Young à ventilation mécanique 43502 (moy/5min)  Davis 7714 (moy/1min) Humidité Vent Davis (km/h) PeetBros Instromet Précipitations (mm) Pression (hPa) Divers  
Date Maxi USCRN /5min Mini  USCRN /5min Moy de 1440 relevés Moy (tx+tn)/2 Index chaleur moyen Index chaleur maxi Froid dû au vent moy/5min  Froid dû au vent mini/5min   Amplitude (tx-tn) Tx OMM/1min Tn OMM/1min Moy de 1440 relevés Moy (tx+tn)/2 Relative maxi Relative mini Relative moy de 1440 relevés Relative moy (hx+hn)/2 Point de rosée maxi Point de rosée mini Point de rosée moy 1440 relevés Vent moy maxi (10min) Vent  moyen (24h) Direction dominante Rafales (km/h) maxi Direction rafale maxi Rafales moy (24h) Rafales (km/h)   maxi Rafales (km/h)   maxi Total du jour (mm) Durée en heures et dixièmes Intensité maxi sur 1 min (mm/h) Maxi Mini Moy de 1440 relevés Moy (px+pn)/2 Variation Epaisseur neige (cm) Remarques diverses    
01/09/2021 27,1 13,2 20,29 20,16 19,95 26,4 18,92 11,3 13,8 27,2 13,3 20,24 20,25 82% 39% 60,6% 60,5% 13,7 10,0 11,79 30,73 17,23 NE 53,1 ENE 24,04 52,2 50 0,0 0,0 0,0 1022,1 1018,3 1020,23 1020,20 3,8   Ciel entre 0/8 et 1/8  
02/09/2021 30,1 15,3 21,43 22,72 21,40 29,9 20,78 13,4 14,8 30,0 15,3 21,51 22,65 90% 35% 64,0% 62,5% 16,8 11,1 13,80 24,75 11,24 ENE 33,8 W 15,56 33,3 32 0,0 0,0 0,0 1019,1 1016,3 1017,59 1017,70 2,8   Ciel entre 1/8 et 6/8  
03/09/2021 27,7 12,9 20,51 20,29 20,91 28,3 20,24 12,8 14,9 27,8 12,8 20,58 20,30 94% 54% 77,8% 74,0% 18,9 11,8 16,12 23,46 7,22 WSW 32,2 WSW 10,04 31,6 32 0,2 0,1 12,0 1017,9 1015,4 1016,47 1016,65 2,5   Ciel entre 4/8 et 8/8 le matin, pluie faible, 4/8 à 6/8 l'après-midi  
04/09/2021 26,2 13,3 19,35 19,75 19,77 26,7 19,20 13,3 12,6 26,4 13,5 19,43 19,95 95% 62% 83,3% 78,5% 18,7 12,4 16,19 16,58 4,88 WSW 24,1 W 6,80 24,4 23 0,0 0,0 0,0 1016,9 1014,7 1015,75 1015,80 2,2   Brouillard, ciel 6/8 à 7/8 le matin, 8/8 à 3/8 l'après-midi, 0/8 le soir  
05/09/2021 30,1 11,4 21,35 20,75 21,69 30,7 21,25 11,3 18,9 30,5 11,3 21,38 20,90 95% 41% 71,9% 68,0% 19,0 10,3 15,29 12,58 5,57 N 19,3 ENE 8,09 19,1 16 0,0 0,0 0,0 1018,8 1016,4 1017,51 1017,60 2,4   Brume, ciel entre 0/8 et 3/8  
06/09/2021 33,6 13,3 24,26 23,44 24,48 33,9 24,13 13,3 20,2 33,7 13,3 24,16 23,50 92% 34% 61,5% 63,0% 18,6 11,9 15,23 18,98 9,55 ENE 33,8 ENE 13,52 * 36 0,0 0,0 0,0 1019,9 1016,8 1018,33 1018,35 3,1   Ciel 0/8  
07/09/2021 33,9 17,8 25,35 25,86 26,21 36,2 25,02 17,7 16,2 33,9 17,7 25,30 25,80 81% 40% 61,9% 60,5% 20,1 13,0 17,00 24,44 11,63 ESE 40,2 ESE 16,09 38,7 40 0,0 0,0 0,0 1017,1 1011,1 1013,81 1014,10 6,0   Ciel entre 0/8 et 5/8  
08/09/2021 27,3 16,5 22,17 21,90 22,95 27,9 21,77 16,3 10,9 27,4 16,6 22,31 22,00 92% 56% 79,7% 74,0% 20,9 14,7 18,25 22,18 10,20 WSW 35,4 WSW 13,75 34,1 34 0,0 0,0 0,0 1013,1 1010,0 1011,62 1011,55 3,1   Ciel entre 5/8 et 8/8 le matin, traces de précip., entre 4/8 et 6/8 l'après-midi  
09/09/2021 24,8 16,5 20,58 20,66 21,28 25,8 19,80 16,5 8,3 24,8 16,4 20,59 20,60 93% 69% 84,9% 81,0% 20,1 15,0 17,76 28,82 11,95 WSW 41,8 WSW 16,24 41,0 41 2,0 0,5 24,0 1013,8 1012,3 1012,91 1013,05 1,5   Ciel entre 6/8 et 7/8, averses  
10/09/2021 24,4 14,1 19,08 19,25 19,42 24,8 18,26 14,1 10,1 24,3 14,0 18,98 19,15 95% 57% 83,6% 76,0% 19,3 12,8 15,92 27,85 11,55 WNW 41,8 WNW 15,07 44,1 43 2,4 0,7 24,0 1020,5 1013,5 1016,48 1017,00 7,0   Ciel entre 4/8 et 8/8 le matin, averses, 5/8 à 0/8 l'après-midi  
11/09/2021 25,0 13,7 18,46 19,36 18,62 24,9 18,35 13,7 11,3 25,2 13,7 18,46 19,45 94% 51% 79,8% 72,5% 16,9 12,4 14,53 14,18 4,52 SE 22,5 WSW 6,62 22,6 20 0,0 0,0 0,0 1021,0 1018,1 1019,64 1019,55 2,9   Ciel entre 2/8 et 8/8 le matin, 6/8 à 2/8 ensuite  
12/09/2021 26,9 11,7 19,05 19,27 18,87 26,3 18,84 11,3 15,2 27,6 11,5 19,00 19,55 91% 39% 67,6% 65,0% 15,2 10,1 12,16 14,01 7,28 NE 22,5 ENE 10,03 23,1 20 0,0 0,0 0,0 1018,6 1014,8 1016,82 1016,70 3,8   Ciel entre 0/8 et 2/8  
13/09/2021 30,8 12,8 22,39 21,83 22,64 31,3 22,16 12,8 18,0 30,9 12,5 22,36 21,70 89% 41% 65,8% 65,0% 18,5 10,9 14,93 23,16 8,85 ENE 41,8 S 12,62 43,3 43 0,0 0,0 0,0 1015,2 1009,5 1011,99 1012,35 5,7   Ciel 0/8 à 6/8 le matin, 6/8 à 7/8 l'après-midi  
14/09/2021 25,4 15,6 20,75 20,52 21,44 26,2 20,53 15,6 9,7 25,5 15,9 20,80 20,70 94% 65% 83,6% 79,5% 19,4 14,6 17,68 17,86 7,80 SSE 25,7 SE 10,99 26,5 25 1,4 0,3 12,0 1011,9 1009,8 1010,56 1010,85 2,1   Ciel entre 6/8 et 8/8 le matin, averses, 8/8 à 6/8 l'après-midi  
15/09/2021 24,7 15,6 20,17 20,14 20,73 25,4 19,80 15,5 9,1 25,1 15,7 20,23 20,40 95% 65% 83,6% 80,0% 20,3 14,5 17,07 19,94 8,37 W 27,4 W 11,38 26,8 26 0,0 0,0 0,0 1017,1 1011,0 1013,74 1014,05 6,1   Ciel entre 4/8 et 8/8 le matin, 6/8 l'après-midi, 4/8 le soir  
16/09/2021 24,7 15,2 19,40 19,95 19,70 25,1 18,83 14,5 9,4 24,6 15,3 19,41 19,95 91% 62% 79,1% 76,5% 17,5 13,7 15,45 22,66 11,09 NNW 32,2 W 15,03 34,2 32 0,0 0,0 0,0 1018,8 1016,7 1017,82 1017,75 2,1   Ciel 8/8 à 4/8 le matin, entre 2/8 et 6/8 l'après-midi  
17/09/2021 24,5 14,4 18,67 19,44 18,75 24,5 18,34 14,3 10,1 25,0 14,2 18,75 19,60 91% 48% 76,0% 69,5% 15,6 11,9 14,01 20,26 8,77 NW 30,6 SW 12,07 31,0 31 0,0 0,0 0,0 1017,9 1013,3 1014,89 1015,60 4,6   Ciel entre 2/8 et 8/8 le matin, 4/8 à 2/8 l'après-midi  
18/09/2021 21,7 12,0 17,48 16,85 17,58 21,7 16,67 11,6 9,8 21,9 12,0 17,51 16,95 94% 57% 79,4% 75,5% 17,1 10,2 13,69 24,59 12,45 WSW 37,0 W 16,06 37,8 38 1,2 0,5 12,0 1015,7 1012,8 1014,36 1014,25 2,9   Ciel 8/8 à 5/8 le matin, pluie, entre 5/8 et 7/8 l'après-midi, 4/8 le soir  
19/09/2021 21,8 11,8 16,90 16,78 16,89 21,4 15,48 11,2 9,9 21,7 11,8 16,83 16,75 93% 57% 79,3% 75,0% 15,1 10,5 13,03 28,65 15,60 W 41,8 WNW 19,94 43,6 42 11,2 2,8 36,0 1020,6 1014,6 1017,92 1017,60 6,0   Ciel entre 3/8 et 8/8 le matin, pluie, 2/8 à 4/8 l'après-midi, 8/8 le soir, pluie  
20/09/2021 21,2 12,8 16,55 16,99 16,48 20,4 16,04 10,6 8,4 21,1 12,7 16,52 16,90 93% 49% 78,3% 71,0% 14,2 9,1 12,48 16,74 10,35 NNW 30,6 WNW 14,12 29,9 30 6,6 1,4 24,0 1026,6 1020,3 1022,72 1023,45 6,3   Ciel 8/8 à 5/8 le matin, pluie, 5/8 l'après-midi, 7/8 le soir  
21/09/2021 23,6 12,3 16,70 17,92 16,54 23,2 16,03 11,0 11,1 23,5 12,3 16,69 17,90 92% 47% 74,0% 69,5% 15,1 9,1 11,67 20,26 11,36 NE 32,2 NE 15,53 34,5 32 0,0 0,0 0,0 1028,1 1026,0 1026,95 1027,05 2,1   Ciel entre 2/8 et 8/8 le matin, 6/8 à 2/8 ensuite  
22/09/2021 24,4 10,5 16,35 17,42 16,16 24,0 15,70 9,3 13,8 24,6 10,5 16,28 17,55 92% 40% 70,7% 66,0% 13,9 8,7 10,40 22,02 10,11 NE 33,8 ENE 13,89 36,5 34 0,0 0,0 0,0 1026,6 1022,6 1024,61 1024,60 4,0   Ciel 0/8  
                                                                               
                                                                               
                                                                               
                                                                               
                                                                               
                                                                               
                                                                               
                                                                               
                                                                               
  Température (°C) - Abri Young à ventilation mécanique 43502 (moy/5min)  Davis 7714 (moy/1min) Humidité Vent Davis (km/h) PeetBros Instromet Précipitations (mm) Pression (hPa) Divers  
PT1000 Maxi USCRN /5min Mini  USCRN /5min Moy de 1440 relevés Moy (tx+tn)/2 Index chaleur moyen Index chaleur maxi Froid dû au vent moy/5min  Froid dû au vent mini/5min   Amplitude (tx-tn) Tx OMM/1min Tn OMM/1min Moy de 1440 relevés Moy (tx+tn)/2 Relative maxi Relative mini Relative moy de 1440 relevés Relative moy (hx+hn)/2 Point de rosée maxi Point de rosée mini Point de rosée moy 1440 relevés Vent moy maxi (10min) Vent  moyen (24h) Direction dominante Rafales (km/h) maxi Direction rafale maxi Rafales moy (24h) Rafales (km/h)   maxi Rafales (km/h)   maxi Total du jour (mm) Durée en heures et dixièmes Intensité maxi sur 1 min (mm/h) Maxi Mini Moy de 1440 relevés Moy (px+pn)/2 Variation Epaisseur neige (cm) Remarques diverses  
Maxi 33,9 17,8 25,35 25,86 26,21 36,2 25,02 17,7 20,2 33,9 17,7 25,30 25,80 95% 69% 84,9% 81,0% 20,9 15,0 18,25 30,73 17,23 ENE 53,1 ENE 24,04 52,2 50 11,2 2,8 36,0 1028,1 1026,0 1026,95 1027,05 7,0 0,0    
Mini 21,2 10,5 16,35 16,78 16,16 20,4 15,48 9,3 8,3 21,1 10,5 16,28 16,75 81% 34% 60,6% 60,5% 13,7 8,7 10,40 12,58 4,52   19,3   6,62 19,1 16       1011,9 1009,5 1010,56 1010,85 1,5      
Moy 26,36 13,76 19,87 20,06 20,11 26,59 19,37 13,25 12,57 26,49 13,74 19,88 20,11 91,7% 50,4% 74,9% 71,0% 17,50 11,76 14,75 21,58 9,89   33,35   13,52 33,73 32,7       1018,97 1015,20 1016,94 1017,08 3,77      
Total                                                         25,0 6,3             0,0    
   
Observations    
Jours Rafales >= 36,0 km/h Rafales >= 57,6 km/h Rafales >= 75,6 km/h Rafales >= 100,8 km/h Précipi. >= 0,1 mm Précipi. >= 1,0 mm Précipi. >= 5,0 mm Précipi. >= 10,0 mm Tx <= 0 Tx <= -5 Tx <= -10 Tx >= 20 Tx >= 25 Tx >= 30 Tx >= 35 Tx >= 40 Tn <= 0 Tn <= -5 Tn <= -10 Tn <= -15 Tn <= -20 T moy <= 0 T moy <=     -5 T moy <=     -10 T moy >= 20 T moy >= 25 T moy >= 30 Grêle Grésil Brouillard Brume Orage Neige        
01/09/2021 1 0 0 0 0 0 0 0 0 0 0 1 1 0 0 0 0 0 0 0 0 0 0 0 0 0 0 0 0 0 0 0 0    
02/09/2021 0 0 0 0 0 0 0 0 0 0 0 1 1 1 0 0 0 0 0 0 0 0 0 0 0 0 0 0 0 0 0 0 0    
03/09/2021 0 0 0 0 1 0 0 0 0 0 0 1 1 0 0 0 0 0 0 0 0 0 0 0 0 0 0 0 0 0 0 0 0    
04/09/2021 0 0 0 0 0 0 0 0 0 0 0 1 1 0 0 0 0 0 0 0 0 0 0 0 0 0 0 0 0 1 0 0 0    
05/09/2021 0 0 0 0 0 0 0 0 0 0 0 1 1 1 0 0 0 0 0 0 0 0 0 0 0 0 0 0 0 0 1 0 0    
06/09/2021 0 0 0 0 0 0 0 0 0 0 0 1 1 1 0 0 0 0 0 0 0 0 0 0 0 0 0 0 0 0 0 0 0    
07/09/2021 1 0 0 0 0 0 0 0 0 0 0 1 1 1 0 0 0 0 0 0 0 0 0 0 0 0 0 0 0 0 0 0 0    
08/09/2021 0 0 0 0 0 0 0 0 0 0 0 1 1 0 0 0 0 0 0 0 0 0 0 0 0 0 0 0 0 0 0 0 0    
09/09/2021 1 0 0 0 1 1 0 0 0 0 0 1 0 0 0 0 0 0 0 0 0 0 0 0 0 0 0 0 0 0 0 0 0    
10/09/2021 1 0 0 0 1 1 0 0 0 0 0 1 0 0 0 0 0 0 0 0 0 0 0 0 0 0 0 0 0 0 0 0 0    
11/09/2021 0 0 0 0 0 0 0 0 0 0 0 1 1 0 0 0 0 0 0 0 0 0 0 0 0 0 0 0 0 0 0 0 0    
12/09/2021 0 0 0 0 0 0 0 0 0 0 0 1 1 0 0 0 0 0 0 0 0 0 0 0 0 0 0 0 0 0 0 0 0    
13/09/2021 1 0 0 0 0 0 0 0 0 0 0 1 1 1 0 0 0 0 0 0 0 0 0 0 0 0 0 0 0 0 0 0 0    
14/09/2021 0 0 0 0 1 1 0 0 0 0 0 1 1 0 0 0 0 0 0 0 0 0 0 0 0 0 0 0 0 0 0 0 0    
15/09/2021 0 0 0 0 0 0 0 0 0 0 0 1 0 0 0 0 0 0 0 0 0 0 0 0 0 0 0 0 0 0 0 0 0    
16/09/2021 0 0 0 0 0 0 0 0 0 0 0 1 0 0 0 0 0 0 0 0 0 0 0 0 0 0 0 0 0 0 0 0 0    
17/09/2021 0 0 0 0 0 0 0 0 0 0 0 1 0 0 0 0 0 0 0 0 0 0 0 0 0 0 0 0 0 0 0 0 0    
18/09/2021 1 0 0 0 1 1 0 0 0 0 0 1 0 0 0 0 0 0 0 0 0 0 0 0 0 0 0 0 0 0 0 0 0    
19/09/2021 1 0 0 0 1 1 1 1 0 0 0 1 0 0 0 0 0 0 0 0 0 0 0 0 0 0 0 0 0 0 0 0 0    
20/09/2021 0 0 0 0 1 1 1 0 0 0 0 1 0 0 0 0 0 0 0 0 0 0 0 0 0 0 0 0 0 0 0 0 0    
21/09/2021 0 0 0 0 0 0 0 0 0 0 0 1 0 0 0 0 0 0 0 0 0 0 0 0 0 0 0 0 0 0 0 0 0    
22/09/2021 0 0 0 0 0 0 0 0 0 0 0 1 0 0 0 0 0 0 0 0 0 0 0 0 0 0 0 0 0 0 0 0 0    
                                                                       
                                                                       
                                                                       
                                                                       
                                                                       
                                                                       
                                                                           
                                                                       
                                                                       
   
  Rafales >= 36,0 km/h Rafales >= 57,6 km/h Rafales >= 75,6 km/h Rafales >= 100,8 km/h Précipi. >= 0,1 mm Précipi. >= 1,0 mm Précipi. >= 5,0 mm Précipi. >= 10,0 mm Tx <=0 Tx <= -5 Tx <= -10 Tx >= 20 Tx >= 25 Tx >= 30 Tx >= 35 Tx >= 40 Tn <= 0 Tn <= -5 Tn <= -10 Tn <= -15 Tn <= -20 T moy <= 0 T moy <=  -5 T moy <=  -10 T moy >= 20 T moy >= 25 T moy >= 30 Grêle Grésil Brouillard Brume Orage Neige        
Total 7 0 0 0 7 6 2 1 0 0 0 22 12 5 0 0 0 0 0 0 0 0 0 0 0 0 0 0 0 1 1 0 0